sensor_id;sensor_type;location;lat;lon;timestamp;P1;durP1;ratioP1;P2;durP2;ratioP2
79710;SDS011;69465;51.630;6.570;2023-04-30T00:00:35;18.83;;;13.27;;
79710;SDS011;69465;51.630;6.570;2023-04-30T00:03:02;22.20;;;14.87;;
79710;SDS011;69465;51.630;6.570;2023-04-30T00:05:28;21.13;;;14.23;;
79710;SDS011;69465;51.630;6.570;2023-04-30T00:07:55;20.10;;;14.67;;
79710;SDS011;69465;51.630;6.570;2023-04-30T00:10:21;18.17;;;12.90;;
79710;SDS011;69465;51.630;6.570;2023-04-30T00:12:48;19.80;;;14.20;;
79710;SDS011;69465;51.630;6.570;2023-04-30T00:15:15;18.63;;;14.03;;
79710;SDS011;69465;51.630;6.570;2023-04-30T00:17:41;19.33;;;14.90;;
79710;SDS011;69465;51.630;6.570;2023-04-30T00:20:08;17.70;;;14.00;;
79710;SDS011;69465;51.630;6.570;2023-04-30T00:22:35;17.23;;;12.97;;
79710;SDS011;69465;51.630;6.570;2023-04-30T00:25:02;21.67;;;14.90;;
79710;SDS011;69465;51.630;6.570;2023-04-30T00:27:28;20.50;;;15.20;;
79710;SDS011;69465;51.630;6.570;2023-04-30T00:29:55;19.23;;;13.93;;
79710;SDS011;69465;51.630;6.570;2023-04-30T00:32:22;16.60;;;13.03;;
79710;SDS011;69465;51.630;6.570;2023-04-30T00:34:49;19.13;;;13.93;;
79710;SDS011;69465;51.630;6.570;2023-04-30T00:37:15;17.37;;;12.43;;
79710;SDS011;69465;51.630;6.570;2023-04-30T00:39:42;14.03;;;12.43;;
79710;SDS011;69465;51.630;6.570;2023-04-30T00:42:09;19.43;;;12.93;;
79710;SDS011;69465;51.630;6.570;2023-04-30T00:44:35;16.40;;;12.63;;
79710;SDS011;69465;51.630;6.570;2023-04-30T00:47:02;16.33;;;12.57;;
79710;SDS011;69465;51.630;6.570;2023-04-30T00:49:29;17.53;;;13.10;;
79710;SDS011;69465;51.630;6.570;2023-04-30T00:51:55;20.33;;;12.90;;
79710;SDS011;69465;51.630;6.570;2023-04-30T00:54:22;18.73;;;12.63;;
79710;SDS011;69465;51.630;6.570;2023-04-30T00:56:50;21.47;;;15.47;;
79710;SDS011;69465;51.630;6.570;2023-04-30T00:59:18;24.27;;;15.57;;
79710;SDS011;69465;51.630;6.570;2023-04-30T01:01:44;20.77;;;15.17;;
79710;SDS011;69465;51.630;6.570;2023-04-30T01:04:11;21.30;;;14.53;;
79710;SDS011;69465;51.630;6.570;2023-04-30T01:06:38;20.30;;;14.90;;
79710;SDS011;69465;51.630;6.570;2023-04-30T01:09:05;21.87;;;16.03;;
79710;SDS011;69465;51.630;6.570;2023-04-30T01:17:16;20.17;;;15.20;;
79710;SDS011;69465;51.630;6.570;2023-04-30T01:19:49;21.50;;;16.50;;
79710;SDS011;69465;51.630;6.570;2023-04-30T01:30:31;23.47;;;16.93;;
79710;SDS011;69465;51.630;6.570;2023-04-30T01:32:59;22.23;;;16.40;;
79710;SDS011;69465;51.630;6.570;2023-04-30T01:41:08;22.07;;;15.70;;
79710;SDS011;69465;51.630;6.570;2023-04-30T01:43:54;22.70;;;15.47;;
79710;SDS011;69465;51.630;6.570;2023-04-30T01:51:51;23.73;;;16.97;;
79710;SDS011;69465;51.630;6.570;2023-04-30T01:54:28;27.07;;;17.90;;
79710;SDS011;69465;51.630;6.570;2023-04-30T01:57:15;23.33;;;18.40;;
79710;SDS011;69465;51.630;6.570;2023-04-30T01:59:47;25.73;;;18.83;;
79710;SDS011;69465;51.630;6.570;2023-04-30T02:02:14;22.33;;;17.63;;
79710;SDS011;69465;51.630;6.570;2023-04-30T02:04:41;25.10;;;18.10;;
79710;SDS011;69465;51.630;6.570;2023-04-30T02:07:07;25.53;;;18.87;;
79710;SDS011;69465;51.630;6.570;2023-04-30T02:09:34;22.73;;;17.53;;
79710;SDS011;69465;51.630;6.570;2023-04-30T02:12:01;24.07;;;18.40;;
79710;SDS011;69465;51.630;6.570;2023-04-30T02:14:29;28.00;;;19.23;;
79710;SDS011;69465;51.630;6.570;2023-04-30T02:16:56;24.33;;;18.23;;
79710;SDS011;69465;51.630;6.570;2023-04-30T02:19:23;26.00;;;18.90;;
79710;SDS011;69465;51.630;6.570;2023-04-30T02:21:49;27.20;;;19.47;;
79710;SDS011;69465;51.630;6.570;2023-04-30T02:24:16;19.13;;;15.80;;
79710;SDS011;69465;51.630;6.570;2023-04-30T02:26:43;25.47;;;17.87;;
79710;SDS011;69465;51.630;6.570;2023-04-30T02:29:10;25.10;;;18.40;;
79710;SDS011;69465;51.630;6.570;2023-04-30T02:31:36;21.60;;;18.03;;
79710;SDS011;69465;51.630;6.570;2023-04-30T02:34:03;20.90;;;17.70;;
79710;SDS011;69465;51.630;6.570;2023-04-30T02:36:30;25.47;;;18.80;;
79710;SDS011;69465;51.630;6.570;2023-04-30T02:38:56;25.17;;;18.77;;
79710;SDS011;69465;51.630;6.570;2023-04-30T02:41:23;25.07;;;18.87;;
79710;SDS011;69465;51.630;6.570;2023-04-30T02:43:50;25.17;;;19.90;;
79710;SDS011;69465;51.630;6.570;2023-04-30T02:46:17;23.30;;;19.27;;
79710;SDS011;69465;51.630;6.570;2023-04-30T02:48:43;22.70;;;17.87;;
79710;SDS011;69465;51.630;6.570;2023-04-30T02:51:10;25.05;;;19.40;;
79710;SDS011;69465;51.630;6.570;2023-04-30T02:53:37;25.33;;;18.77;;
79710;SDS011;69465;51.630;6.570;2023-04-30T02:56:04;24.67;;;20.30;;
79710;SDS011;69465;51.630;6.570;2023-04-30T02:58:30;27.47;;;19.90;;
79710;SDS011;69465;51.630;6.570;2023-04-30T03:00:57;29.53;;;20.23;;
79710;SDS011;69465;51.630;6.570;2023-04-30T03:03:24;25.55;;;19.15;;
79710;SDS011;69465;51.630;6.570;2023-04-30T03:05:51;26.10;;;19.37;;
79710;SDS011;69465;51.630;6.570;2023-04-30T03:08:17;20.23;;;16.27;;
79710;SDS011;69465;51.630;6.570;2023-04-30T03:10:44;24.10;;;18.47;;
79710;SDS011;69465;51.630;6.570;2023-04-30T03:13:11;22.90;;;17.23;;
79710;SDS011;69465;51.630;6.570;2023-04-30T03:15:37;24.83;;;17.83;;
79710;SDS011;69465;51.630;6.570;2023-04-30T03:18:04;24.97;;;16.70;;
79710;SDS011;69465;51.630;6.570;2023-04-30T03:20:31;22.67;;;17.00;;
79710;SDS011;69465;51.630;6.570;2023-04-30T03:22:57;25.30;;;17.93;;
79710;SDS011;69465;51.630;6.570;2023-04-30T03:25:24;26.13;;;19.03;;
79710;SDS011;69465;51.630;6.570;2023-04-30T03:27:51;26.33;;;20.17;;
79710;SDS011;69465;51.630;6.570;2023-04-30T03:30:17;29.20;;;23.57;;
79710;SDS011;69465;51.630;6.570;2023-04-30T03:32:44;35.77;;;29.07;;
79710;SDS011;69465;51.630;6.570;2023-04-30T03:35:11;37.77;;;29.27;;
79710;SDS011;69465;51.630;6.570;2023-04-30T03:37:38;31.17;;;25.35;;
79710;SDS011;69465;51.630;6.570;2023-04-30T03:40:04;31.93;;;24.00;;
79710;SDS011;69465;51.630;6.570;2023-04-30T03:42:31;31.50;;;22.20;;
79710;SDS011;69465;51.630;6.570;2023-04-30T03:44:58;30.10;;;22.20;;
79710;SDS011;69465;51.630;6.570;2023-04-30T03:47:25;27.07;;;20.97;;
79710;SDS011;69465;51.630;6.570;2023-04-30T03:49:52;28.67;;;19.20;;
79710;SDS011;69465;51.630;6.570;2023-04-30T03:52:19;26.90;;;19.20;;
79710;SDS011;69465;51.630;6.570;2023-04-30T03:54:46;28.50;;;19.40;;
79710;SDS011;69465;51.630;6.570;2023-04-30T03:57:13;25.97;;;19.17;;
79710;SDS011;69465;51.630;6.570;2023-04-30T03:59:40;30.08;;;20.88;;
79710;SDS011;69465;51.630;6.570;2023-04-30T04:02:06;31.53;;;21.10;;
79710;SDS011;69465;51.630;6.570;2023-04-30T04:04:33;31.02;;;21.70;;
79710;SDS011;69465;51.630;6.570;2023-04-30T04:07:00;32.33;;;22.80;;
79710;SDS011;69465;51.630;6.570;2023-04-30T04:09:28;30.57;;;21.63;;
79710;SDS011;69465;51.630;6.570;2023-04-30T04:11:54;29.23;;;20.80;;
79710;SDS011;69465;51.630;6.570;2023-04-30T04:14:21;30.92;;;21.38;;
79710;SDS011;69465;51.630;6.570;2023-04-30T04:16:48;32.40;;;21.50;;
79710;SDS011;69465;51.630;6.570;2023-04-30T04:19:14;27.40;;;20.13;;
79710;SDS011;69465;51.630;6.570;2023-04-30T04:21:41;32.78;;;21.48;;
79710;SDS011;69465;51.630;6.570;2023-04-30T04:24:10;31.10;;;19.10;;
79710;SDS011;69465;51.630;6.570;2023-04-30T04:26:37;28.40;;;19.37;;
79710;SDS011;69465;51.630;6.570;2023-04-30T04:29:04;24.30;;;17.37;;
79710;SDS011;69465;51.630;6.570;2023-04-30T04:31:30;25.53;;;17.67;;
79710;SDS011;69465;51.630;6.570;2023-04-30T04:33:58;27.17;;;19.53;;
79710;SDS011;69465;51.630;6.570;2023-04-30T04:36:26;26.13;;;18.30;;
79710;SDS011;69465;51.630;6.570;2023-04-30T04:38:53;26.40;;;17.98;;
79710;SDS011;69465;51.630;6.570;2023-04-30T04:41:20;25.47;;;17.60;;
79710;SDS011;69465;51.630;6.570;2023-04-30T04:43:47;25.40;;;17.73;;
79710;SDS011;69465;51.630;6.570;2023-04-30T04:46:14;26.07;;;18.37;;
79710;SDS011;69465;51.630;6.570;2023-04-30T04:48:40;24.75;;;18.13;;
79710;SDS011;69465;51.630;6.570;2023-04-30T04:51:08;24.85;;;18.05;;
79710;SDS011;69465;51.630;6.570;2023-04-30T04:53:35;25.13;;;17.77;;
79710;SDS011;69465;51.630;6.570;2023-04-30T04:56:02;21.90;;;16.00;;
79710;SDS011;69465;51.630;6.570;2023-04-30T04:58:29;23.03;;;17.00;;
79710;SDS011;69465;51.630;6.570;2023-04-30T05:00:55;24.07;;;16.63;;
79710;SDS011;69465;51.630;6.570;2023-04-30T05:03:22;24.10;;;16.37;;
79710;SDS011;69465;51.630;6.570;2023-04-30T05:05:49;21.10;;;16.63;;
79710;SDS011;69465;51.630;6.570;2023-04-30T05:08:16;20.87;;;15.93;;
79710;SDS011;69465;51.630;6.570;2023-04-30T05:10:42;21.53;;;15.10;;
79710;SDS011;69465;51.630;6.570;2023-04-30T05:13:09;18.33;;;14.70;;
79710;SDS011;69465;51.630;6.570;2023-04-30T05:15:36;19.20;;;13.47;;
79710;SDS011;69465;51.630;6.570;2023-04-30T05:18:02;17.13;;;13.27;;
79710;SDS011;69465;51.630;6.570;2023-04-30T05:20:29;17.13;;;13.53;;
79710;SDS011;69465;51.630;6.570;2023-04-30T05:22:56;18.67;;;12.40;;
79710;SDS011;69465;51.630;6.570;2023-04-30T05:25:22;17.60;;;12.53;;
79710;SDS011;69465;51.630;6.570;2023-04-30T05:27:49;14.20;;;11.17;;
79710;SDS011;69465;51.630;6.570;2023-04-30T05:30:16;11.77;;;8.83;;
79710;SDS011;69465;51.630;6.570;2023-04-30T05:32:42;9.57;;;7.90;;
79710;SDS011;69465;51.630;6.570;2023-04-30T05:35:09;8.40;;;7.20;;
79710;SDS011;69465;51.630;6.570;2023-04-30T05:37:36;8.00;;;6.93;;
79710;SDS011;69465;51.630;6.570;2023-04-30T05:40:03;8.00;;;6.60;;
79710;SDS011;69465;51.630;6.570;2023-04-30T05:42:29;7.93;;;7.13;;
79710;SDS011;69465;51.630;6.570;2023-04-30T05:44:56;7.40;;;6.57;;
79710;SDS011;69465;51.630;6.570;2023-04-30T05:47:23;9.03;;;7.03;;
79710;SDS011;69465;51.630;6.570;2023-04-30T05:49:50;8.27;;;6.47;;
79710;SDS011;69465;51.630;6.570;2023-04-30T05:52:17;7.57;;;6.43;;
79710;SDS011;69465;51.630;6.570;2023-04-30T05:54:43;8.40;;;6.60;;
79710;SDS011;69465;51.630;6.570;2023-04-30T05:57:11;7.33;;;6.00;;
79710;SDS011;69465;51.630;6.570;2023-04-30T05:59:37;6.97;;;6.27;;
79710;SDS011;69465;51.630;6.570;2023-04-30T06:02:05;6.73;;;6.13;;
79710;SDS011;69465;51.630;6.570;2023-04-30T06:04:32;7.13;;;6.43;;
79710;SDS011;69465;51.630;6.570;2023-04-30T06:06:58;6.47;;;5.90;;
79710;SDS011;69465;51.630;6.570;2023-04-30T06:09:25;7.53;;;6.10;;
79710;SDS011;69465;51.630;6.570;2023-04-30T06:11:52;7.43;;;6.47;;
79710;SDS011;69465;51.630;6.570;2023-04-30T06:14:18;8.23;;;6.33;;
79710;SDS011;69465;51.630;6.570;2023-04-30T06:16:45;7.47;;;6.70;;
79710;SDS011;69465;51.630;6.570;2023-04-30T06:19:12;7.77;;;6.33;;
79710;SDS011;69465;51.630;6.570;2023-04-30T06:21:39;8.73;;;6.47;;
79710;SDS011;69465;51.630;6.570;2023-04-30T06:24:05;7.80;;;6.40;;
79710;SDS011;69465;51.630;6.570;2023-04-30T06:26:32;9.23;;;6.50;;
79710;SDS011;69465;51.630;6.570;2023-04-30T06:28:58;7.27;;;6.57;;
79710;SDS011;69465;51.630;6.570;2023-04-30T06:31:25;8.07;;;7.27;;
79710;SDS011;69465;51.630;6.570;2023-04-30T06:33:52;7.47;;;6.70;;
79710;SDS011;69465;51.630;6.570;2023-04-30T06:36:19;7.83;;;7.03;;
79710;SDS011;69465;51.630;6.570;2023-04-30T06:38:45;8.20;;;7.40;;
79710;SDS011;69465;51.630;6.570;2023-04-30T06:41:12;9.03;;;7.37;;
79710;SDS011;69465;51.630;6.570;2023-04-30T06:43:39;7.57;;;6.87;;
79710;SDS011;69465;51.630;6.570;2023-04-30T06:46:06;8.33;;;7.43;;
79710;SDS011;69465;51.630;6.570;2023-04-30T06:48:32;8.23;;;7.23;;
79710;SDS011;69465;51.630;6.570;2023-04-30T06:50:59;7.67;;;6.67;;
79710;SDS011;69465;51.630;6.570;2023-04-30T06:53:26;7.83;;;7.03;;
79710;SDS011;69465;51.630;6.570;2023-04-30T06:55:52;7.43;;;6.70;;
79710;SDS011;69465;51.630;6.570;2023-04-30T06:58:19;7.63;;;6.93;;
79710;SDS011;69465;51.630;6.570;2023-04-30T07:00:46;7.97;;;6.70;;
79710;SDS011;69465;51.630;6.570;2023-04-30T07:03:12;9.17;;;6.60;;
79710;SDS011;69465;51.630;6.570;2023-04-30T07:05:39;8.13;;;7.17;;
79710;SDS011;69465;51.630;6.570;2023-04-30T07:08:06;7.93;;;7.13;;
79710;SDS011;69465;51.630;6.570;2023-04-30T07:10:32;8.57;;;7.30;;
79710;SDS011;69465;51.630;6.570;2023-04-30T07:12:59;7.57;;;6.77;;
79710;SDS011;69465;51.630;6.570;2023-04-30T07:15:26;7.60;;;6.80;;
79710;SDS011;69465;51.630;6.570;2023-04-30T07:17:52;8.00;;;6.93;;
79710;SDS011;69465;51.630;6.570;2023-04-30T07:20:19;8.03;;;7.13;;
79710;SDS011;69465;51.630;6.570;2023-04-30T07:22:45;8.63;;;7.43;;
79710;SDS011;69465;51.630;6.570;2023-04-30T07:25:12;7.77;;;6.97;;
79710;SDS011;69465;51.630;6.570;2023-04-30T07:27:40;8.33;;;7.37;;
79710;SDS011;69465;51.630;6.570;2023-04-30T07:30:07;8.13;;;7.33;;
79710;SDS011;69465;51.630;6.570;2023-04-30T07:32:35;8.37;;;7.57;;
79710;SDS011;69465;51.630;6.570;2023-04-30T07:35:02;8.17;;;7.37;;
79710;SDS011;69465;51.630;6.570;2023-04-30T07:37:29;8.03;;;7.30;;
79710;SDS011;69465;51.630;6.570;2023-04-30T07:39:58;8.00;;;7.20;;
79710;SDS011;69465;51.630;6.570;2023-04-30T07:42:24;8.27;;;7.40;;
79710;SDS011;69465;51.630;6.570;2023-04-30T07:44:51;7.87;;;7.03;;
79710;SDS011;69465;51.630;6.570;2023-04-30T07:47:18;8.07;;;7.27;;
79710;SDS011;69465;51.630;6.570;2023-04-30T07:49:45;8.73;;;7.17;;
79710;SDS011;69465;51.630;6.570;2023-04-30T07:52:12;8.13;;;7.30;;
79710;SDS011;69465;51.630;6.570;2023-04-30T07:54:39;8.00;;;6.97;;
79710;SDS011;69465;51.630;6.570;2023-04-30T07:57:06;7.37;;;6.70;;
79710;SDS011;69465;51.630;6.570;2023-04-30T07:59:33;8.67;;;7.17;;
79710;SDS011;69465;51.630;6.570;2023-04-30T08:01:59;8.47;;;7.50;;
79710;SDS011;69465;51.630;6.570;2023-04-30T08:04:26;7.37;;;6.67;;
79710;SDS011;69465;51.630;6.570;2023-04-30T08:06:53;8.00;;;7.20;;
79710;SDS011;69465;51.630;6.570;2023-04-30T08:09:20;9.37;;;7.87;;
79710;SDS011;69465;51.630;6.570;2023-04-30T08:11:47;7.50;;;6.80;;
79710;SDS011;69465;51.630;6.570;2023-04-30T08:14:14;8.17;;;7.37;;
79710;SDS011;69465;51.630;6.570;2023-04-30T08:16:40;7.93;;;7.23;;
79710;SDS011;69465;51.630;6.570;2023-04-30T08:19:07;8.67;;;7.73;;
79710;SDS011;69465;51.630;6.570;2023-04-30T08:21:33;7.90;;;7.20;;
79710;SDS011;69465;51.630;6.570;2023-04-30T08:24:00;8.63;;;7.83;;
79710;SDS011;69465;51.630;6.570;2023-04-30T08:26:27;8.47;;;7.67;;
79710;SDS011;69465;51.630;6.570;2023-04-30T08:28:54;8.40;;;7.60;;
79710;SDS011;69465;51.630;6.570;2023-04-30T08:31:20;9.20;;;6.97;;
79710;SDS011;69465;51.630;6.570;2023-04-30T08:33:47;8.27;;;7.47;;
79710;SDS011;69465;51.630;6.570;2023-04-30T08:36:14;7.83;;;7.03;;
79710;SDS011;69465;51.630;6.570;2023-04-30T08:38:40;9.00;;;7.27;;
79710;SDS011;69465;51.630;6.570;2023-04-30T08:41:11;8.20;;;7.40;;
79710;SDS011;69465;51.630;6.570;2023-04-30T08:43:39;8.33;;;7.17;;
79710;SDS011;69465;51.630;6.570;2023-04-30T08:46:06;8.20;;;7.40;;
79710;SDS011;69465;51.630;6.570;2023-04-30T08:48:33;8.63;;;6.90;;
79710;SDS011;69465;51.630;6.570;2023-04-30T08:51:00;6.43;;;5.60;;
79710;SDS011;69465;51.630;6.570;2023-04-30T08:53:31;5.60;;;4.93;;
79710;SDS011;69465;51.630;6.570;2023-04-30T08:56:00;7.67;;;6.47;;
79710;SDS011;69465;51.630;6.570;2023-04-30T08:58:28;5.77;;;4.90;;
79710;SDS011;69465;51.630;6.570;2023-04-30T09:00:57;6.70;;;5.35;;
79710;SDS011;69465;51.630;6.570;2023-04-30T09:03:24;5.33;;;4.70;;
79710;SDS011;69465;51.630;6.570;2023-04-30T09:05:51;6.13;;;5.07;;
79710;SDS011;69465;51.630;6.570;2023-04-30T09:08:18;6.70;;;5.47;;
79710;SDS011;69465;51.630;6.570;2023-04-30T09:11:22;5.40;;;4.77;;
79710;SDS011;69465;51.630;6.570;2023-04-30T09:13:56;6.87;;;5.00;;
79710;SDS011;69465;51.630;6.570;2023-04-30T09:16:24;6.37;;;4.90;;
79710;SDS011;69465;51.630;6.570;2023-04-30T09:18:52;6.37;;;5.60;;
79710;SDS011;69465;51.630;6.570;2023-04-30T09:21:32;5.67;;;5.13;;
79710;SDS011;69465;51.630;6.570;2023-04-30T09:24:01;6.33;;;5.30;;
79710;SDS011;69465;51.630;6.570;2023-04-30T09:29:00;5.90;;;5.00;;
79710;SDS011;69465;51.630;6.570;2023-04-30T09:31:27;6.22;;;5.10;;
79710;SDS011;69465;51.630;6.570;2023-04-30T09:33:53;6.00;;;5.33;;
79710;SDS011;69465;51.630;6.570;2023-04-30T09:36:20;6.07;;;4.80;;
79710;SDS011;69465;51.630;6.570;2023-04-30T09:38:46;4.43;;;4.03;;
79710;SDS011;69465;51.630;6.570;2023-04-30T09:41:46;5.63;;;4.50;;
79710;SDS011;69465;51.630;6.570;2023-04-30T09:44:06;3.83;;;3.43;;
79710;SDS011;69465;51.630;6.570;2023-04-30T09:46:33;4.43;;;3.83;;
79710;SDS011;69465;51.630;6.570;2023-04-30T09:49:01;5.70;;;5.10;;
79710;SDS011;69465;51.630;6.570;2023-04-30T09:51:28;6.57;;;4.83;;
79710;SDS011;69465;51.630;6.570;2023-04-30T09:53:55;5.00;;;4.47;;
79710;SDS011;69465;51.630;6.570;2023-04-30T09:56:22;5.23;;;4.47;;
79710;SDS011;69465;51.630;6.570;2023-04-30T09:58:50;5.40;;;4.40;;
79710;SDS011;69465;51.630;6.570;2023-04-30T10:01:19;5.53;;;4.87;;
79710;SDS011;69465;51.630;6.570;2023-04-30T10:03:52;5.20;;;4.70;;
79710;SDS011;69465;51.630;6.570;2023-04-30T10:06:19;5.17;;;4.63;;
79710;SDS011;69465;51.630;6.570;2023-04-30T10:08:48;5.73;;;4.27;;
79710;SDS011;69465;51.630;6.570;2023-04-30T10:11:19;4.77;;;4.00;;
79710;SDS011;69465;51.630;6.570;2023-04-30T10:13:52;4.40;;;4.00;;
79710;SDS011;69465;51.630;6.570;2023-04-30T10:19:29;4.47;;;2.93;;
79710;SDS011;69465;51.630;6.570;2023-04-30T10:21:57;4.57;;;3.73;;
79710;SDS011;69465;51.630;6.570;2023-04-30T10:24:24;3.63;;;3.20;;
79710;SDS011;69465;51.630;6.570;2023-04-30T10:26:51;3.70;;;3.27;;
79710;SDS011;69465;51.630;6.570;2023-04-30T10:29:20;5.23;;;2.90;;
79710;SDS011;69465;51.630;6.570;2023-04-30T10:31:47;3.70;;;2.80;;
79710;SDS011;69465;51.630;6.570;2023-04-30T10:39:55;3.73;;;2.90;;
79710;SDS011;69465;51.630;6.570;2023-04-30T10:42:22;4.13;;;3.10;;
79710;SDS011;69465;51.630;6.570;2023-04-30T10:44:48;5.67;;;4.07;;
79710;SDS011;69465;51.630;6.570;2023-04-30T10:47:15;4.83;;;4.07;;
79710;SDS011;69465;51.630;6.570;2023-04-30T10:49:44;6.33;;;4.20;;
79710;SDS011;69465;51.630;6.570;2023-04-30T10:52:12;4.70;;;4.20;;
79710;SDS011;69465;51.630;6.570;2023-04-30T10:54:38;6.13;;;3.87;;
79710;SDS011;69465;51.630;6.570;2023-04-30T10:57:16;4.67;;;3.53;;
79710;SDS011;69465;51.630;6.570;2023-04-30T10:59:50;4.73;;;4.23;;
79710;SDS011;69465;51.630;6.570;2023-04-30T11:02:18;6.97;;;5.25;;
79710;SDS011;69465;51.630;6.570;2023-04-30T11:07:31;4.43;;;4.03;;
79710;SDS011;69465;51.630;6.570;2023-04-30T11:09:59;5.23;;;3.90;;
79710;SDS011;69465;51.630;6.570;2023-04-30T11:12:27;6.30;;;4.20;;
79710;SDS011;69465;51.630;6.570;2023-04-30T11:14:59;4.97;;;4.50;;
79710;SDS011;69465;51.630;6.570;2023-04-30T11:17:30;7.30;;;4.87;;
79710;SDS011;69465;51.630;6.570;2023-04-30T11:19:58;4.43;;;3.70;;
79710;SDS011;69465;51.630;6.570;2023-04-30T11:22:26;5.37;;;3.80;;
79710;SDS011;69465;51.630;6.570;2023-04-30T11:25:01;4.50;;;3.90;;
79710;SDS011;69465;51.630;6.570;2023-04-30T11:27:30;4.33;;;4.00;;
79710;SDS011;69465;51.630;6.570;2023-04-30T11:29:58;4.87;;;4.03;;
79710;SDS011;69465;51.630;6.570;2023-04-30T11:32:30;4.50;;;3.83;;
79710;SDS011;69465;51.630;6.570;2023-04-30T11:34:59;5.07;;;3.83;;
79710;SDS011;69465;51.630;6.570;2023-04-30T11:40:04;4.37;;;3.63;;
79710;SDS011;69465;51.630;6.570;2023-04-30T11:42:32;5.13;;;3.40;;
79710;SDS011;69465;51.630;6.570;2023-04-30T11:45:09;4.87;;;4.00;;
79710;SDS011;69465;51.630;6.570;2023-04-30T11:47:37;4.77;;;3.73;;
79710;SDS011;69465;51.630;6.570;2023-04-30T11:50:05;6.37;;;4.30;;
79710;SDS011;69465;51.630;6.570;2023-04-30T11:52:33;5.67;;;3.60;;
79710;SDS011;69465;51.630;6.570;2023-04-30T11:54:59;3.83;;;3.43;;
79710;SDS011;69465;51.630;6.570;2023-04-30T11:57:33;4.97;;;3.63;;
79710;SDS011;69465;51.630;6.570;2023-04-30T12:00:07;5.03;;;3.53;;
79710;SDS011;69465;51.630;6.570;2023-04-30T12:02:38;4.73;;;3.40;;
79710;SDS011;69465;51.630;6.570;2023-04-30T12:05:16;6.43;;;4.30;;
79710;SDS011;69465;51.630;6.570;2023-04-30T12:07:45;4.80;;;3.60;;
79710;SDS011;69465;51.630;6.570;2023-04-30T12:10:13;5.53;;;3.20;;
79710;SDS011;69465;51.630;6.570;2023-04-30T12:12:41;3.33;;;3.00;;
79710;SDS011;69465;51.630;6.570;2023-04-30T12:15:15;3.43;;;3.03;;
79710;SDS011;69465;51.630;6.570;2023-04-30T12:17:43;4.10;;;3.33;;
79710;SDS011;69465;51.630;6.570;2023-04-30T12:20:14;5.03;;;3.30;;
79710;SDS011;69465;51.630;6.570;2023-04-30T12:22:41;5.20;;;3.47;;
79710;SDS011;69465;51.630;6.570;2023-04-30T12:25:13;4.40;;;3.10;;
79710;SDS011;69465;51.630;6.570;2023-04-30T12:27:50;4.63;;;2.80;;
79710;SDS011;69465;51.630;6.570;2023-04-30T12:30:22;4.60;;;2.97;;
79710;SDS011;69465;51.630;6.570;2023-04-30T12:32:52;4.53;;;2.73;;
79710;SDS011;69465;51.630;6.570;2023-04-30T12:35:22;4.07;;;3.30;;
79710;SDS011;69465;51.630;6.570;2023-04-30T12:37:53;3.60;;;2.80;;
79710;SDS011;69465;51.630;6.570;2023-04-30T12:40:27;2.77;;;2.43;;
79710;SDS011;69465;51.630;6.570;2023-04-30T12:43:00;5.53;;;2.70;;
79710;SDS011;69465;51.630;6.570;2023-04-30T12:45:45;3.77;;;2.80;;
79710;SDS011;69465;51.630;6.570;2023-04-30T12:48:13;5.87;;;2.70;;
79710;SDS011;69465;51.630;6.570;2023-04-30T12:50:40;4.03;;;2.70;;
79710;SDS011;69465;51.630;6.570;2023-04-30T12:53:07;4.53;;;2.77;;
79710;SDS011;69465;51.630;6.570;2023-04-30T12:55:34;3.20;;;2.60;;
79710;SDS011;69465;51.630;6.570;2023-04-30T12:58:04;3.93;;;2.43;;
79710;SDS011;69465;51.630;6.570;2023-04-30T13:03:28;4.03;;;2.60;;
79710;SDS011;69465;51.630;6.570;2023-04-30T13:05:55;3.07;;;2.50;;
79710;SDS011;69465;51.630;6.570;2023-04-30T13:08:22;5.30;;;2.60;;
79710;SDS011;69465;51.630;6.570;2023-04-30T13:10:48;5.17;;;2.37;;
79710;SDS011;69465;51.630;6.570;2023-04-30T13:13:15;3.40;;;2.30;;
79710;SDS011;69465;51.630;6.570;2023-04-30T13:15:42;3.33;;;2.80;;
79710;SDS011;69465;51.630;6.570;2023-04-30T13:18:09;3.03;;;2.10;;
79710;SDS011;69465;51.630;6.570;2023-04-30T13:20:37;2.77;;;2.13;;
79710;SDS011;69465;51.630;6.570;2023-04-30T13:23:04;4.37;;;2.53;;
79710;SDS011;69465;51.630;6.570;2023-04-30T13:25:31;4.70;;;2.27;;
79710;SDS011;69465;51.630;6.570;2023-04-30T13:27:58;5.00;;;2.30;;
79710;SDS011;69465;51.630;6.570;2023-04-30T13:30:25;3.30;;;1.90;;
79710;SDS011;69465;51.630;6.570;2023-04-30T13:32:52;2.20;;;1.80;;
79710;SDS011;69465;51.630;6.570;2023-04-30T13:35:18;2.53;;;1.70;;
79710;SDS011;69465;51.630;6.570;2023-04-30T13:37:45;2.33;;;1.30;;
79710;SDS011;69465;51.630;6.570;2023-04-30T13:40:12;2.70;;;1.70;;
79710;SDS011;69465;51.630;6.570;2023-04-30T13:42:40;4.33;;;1.63;;
79710;SDS011;69465;51.630;6.570;2023-04-30T13:45:07;2.77;;;1.70;;
79710;SDS011;69465;51.630;6.570;2023-04-30T13:47:34;3.80;;;2.00;;
79710;SDS011;69465;51.630;6.570;2023-04-30T13:50:04;3.17;;;1.97;;
79710;SDS011;69465;51.630;6.570;2023-04-30T13:52:32;2.37;;;1.80;;
79710;SDS011;69465;51.630;6.570;2023-04-30T13:54:58;1.97;;;1.80;;
79710;SDS011;69465;51.630;6.570;2023-04-30T13:57:25;2.77;;;1.60;;
79710;SDS011;69465;51.630;6.570;2023-04-30T13:59:52;2.07;;;1.60;;
79710;SDS011;69465;51.630;6.570;2023-04-30T14:02:19;3.47;;;1.87;;
79710;SDS011;69465;51.630;6.570;2023-04-30T14:04:46;2.40;;;1.67;;
79710;SDS011;69465;51.630;6.570;2023-04-30T14:07:30;3.60;;;1.80;;
79710;SDS011;69465;51.630;6.570;2023-04-30T14:09:57;3.73;;;1.87;;
79710;SDS011;69465;51.630;6.570;2023-04-30T14:12:24;2.80;;;1.67;;
79710;SDS011;69465;51.630;6.570;2023-04-30T14:14:51;2.67;;;1.77;;
79710;SDS011;69465;51.630;6.570;2023-04-30T14:17:18;2.17;;;1.50;;
79710;SDS011;69465;51.630;6.570;2023-04-30T14:19:44;2.50;;;1.63;;
79710;SDS011;69465;51.630;6.570;2023-04-30T14:22:11;4.53;;;1.83;;
79710;SDS011;69465;51.630;6.570;2023-04-30T14:24:37;2.00;;;1.30;;
79710;SDS011;69465;51.630;6.570;2023-04-30T14:27:04;4.13;;;1.80;;
79710;SDS011;69465;51.630;6.570;2023-04-30T14:29:31;3.37;;;1.70;;
79710;SDS011;69465;51.630;6.570;2023-04-30T14:31:57;2.27;;;1.80;;
79710;SDS011;69465;51.630;6.570;2023-04-30T14:34:24;3.50;;;2.10;;
79710;SDS011;69465;51.630;6.570;2023-04-30T14:36:50;3.20;;;1.77;;
79710;SDS011;69465;51.630;6.570;2023-04-30T14:39:17;2.60;;;1.57;;
79710;SDS011;69465;51.630;6.570;2023-04-30T14:41:43;2.90;;;1.53;;
79710;SDS011;69465;51.630;6.570;2023-04-30T14:44:10;2.57;;;1.70;;
79710;SDS011;69465;51.630;6.570;2023-04-30T14:46:36;3.27;;;1.43;;
79710;SDS011;69465;51.630;6.570;2023-04-30T14:49:03;1.73;;;1.60;;
79710;SDS011;69465;51.630;6.570;2023-04-30T14:51:30;3.43;;;1.90;;
79710;SDS011;69465;51.630;6.570;2023-04-30T14:53:57;2.40;;;1.60;;
79710;SDS011;69465;51.630;6.570;2023-04-30T14:56:23;3.67;;;1.77;;
79710;SDS011;69465;51.630;6.570;2023-04-30T14:58:50;3.17;;;2.10;;
79710;SDS011;69465;51.630;6.570;2023-04-30T15:01:17;2.30;;;2.10;;
79710;SDS011;69465;51.630;6.570;2023-04-30T15:03:44;2.73;;;1.57;;
79710;SDS011;69465;51.630;6.570;2023-04-30T15:06:11;1.73;;;1.20;;
79710;SDS011;69465;51.630;6.570;2023-04-30T15:08:38;2.30;;;1.60;;
79710;SDS011;69465;51.630;6.570;2023-04-30T15:11:05;2.43;;;1.60;;
79710;SDS011;69465;51.630;6.570;2023-04-30T15:13:32;2.50;;;1.50;;
79710;SDS011;69465;51.630;6.570;2023-04-30T15:15:58;2.23;;;1.50;;
79710;SDS011;69465;51.630;6.570;2023-04-30T15:18:25;3.27;;;1.77;;
79710;SDS011;69465;51.630;6.570;2023-04-30T15:20:52;2.23;;;1.60;;
79710;SDS011;69465;51.630;6.570;2023-04-30T15:23:19;2.20;;;1.30;;
79710;SDS011;69465;51.630;6.570;2023-04-30T15:25:45;2.20;;;1.60;;